sensor_id;sensor_type;location;lat;lon;timestamp;P1;durP1;ratioP1;P2;durP2;ratioP2
29688;SDS011;16600;47.444;8.334;2024-01-30T00:01:42;21.30;;;18.17;;
29688;SDS011;16600;47.444;8.334;2024-01-30T00:04:11;26.92;;;19.50;;
29688;SDS011;16600;47.444;8.334;2024-01-30T00:06:37;25.63;;;21.35;;
29688;SDS011;16600;47.444;8.334;2024-01-30T00:09:03;32.63;;;21.98;;
29688;SDS011;16600;47.444;8.334;2024-01-30T00:11:40;24.20;;;21.60;;
29688;SDS011;16600;47.444;8.334;2024-01-30T00:14:06;21.55;;;19.25;;
29688;SDS011;16600;47.444;8.334;2024-01-30T00:16:38;20.73;;;18.52;;
29688;SDS011;16600;47.444;8.334;2024-01-30T00:19:07;20.30;;;18.17;;
29688;SDS011;16600;47.444;8.334;2024-01-30T00:21:36;20.45;;;18.38;;
29688;SDS011;16600;47.444;8.334;2024-01-30T00:24:13;23.60;;;19.08;;
29688;SDS011;16600;47.444;8.334;2024-01-30T00:26:39;20.23;;;18.23;;
29688;SDS011;16600;47.444;8.334;2024-01-30T00:29:04;18.98;;;17.02;;
29688;SDS011;16600;47.444;8.334;2024-01-30T00:31:31;19.48;;;16.63;;
29688;SDS011;16600;47.444;8.334;2024-01-30T00:33:56;17.27;;;15.52;;
29688;SDS011;16600;47.444;8.334;2024-01-30T00:36:22;22.38;;;16.35;;
29688;SDS011;16600;47.444;8.334;2024-01-30T00:38:54;19.75;;;17.67;;
29688;SDS011;16600;47.444;8.334;2024-01-30T00:41:21;18.27;;;16.45;;
29688;SDS011;16600;47.444;8.334;2024-01-30T00:43:58;20.33;;;15.30;;
29688;SDS011;16600;47.444;8.334;2024-01-30T00:46:29;18.73;;;16.80;;
29688;SDS011;16600;47.444;8.334;2024-01-30T00:49:01;18.55;;;16.50;;
29688;SDS011;16600;47.444;8.334;2024-01-30T00:51:33;16.43;;;14.83;;
29688;SDS011;16600;47.444;8.334;2024-01-30T00:53:59;18.58;;;15.82;;
29688;SDS011;16600;47.444;8.334;2024-01-30T00:56:32;17.58;;;15.75;;
29688;SDS011;16600;47.444;8.334;2024-01-30T00:58:58;17.60;;;14.98;;
29688;SDS011;16600;47.444;8.334;2024-01-30T01:03:02;17.67;;;15.77;;
29688;SDS011;16600;47.444;8.334;2024-01-30T01:05:28;18.92;;;15.90;;
29688;SDS011;16600;47.444;8.334;2024-01-30T01:07:56;18.77;;;16.77;;
29688;SDS011;16600;47.444;8.334;2024-01-30T01:10:22;19.52;;;16.15;;
29688;SDS011;16600;47.444;8.334;2024-01-30T01:12:50;17.05;;;15.38;;
29688;SDS011;16600;47.444;8.334;2024-01-30T01:15:20;16.13;;;14.48;;
29688;SDS011;16600;47.444;8.334;2024-01-30T01:18:01;16.25;;;14.55;;
29688;SDS011;16600;47.444;8.334;2024-01-30T01:20:29;16.48;;;14.77;;
29688;SDS011;16600;47.444;8.334;2024-01-30T01:22:55;17.80;;;14.85;;
29688;SDS011;16600;47.444;8.334;2024-01-30T01:25:21;16.17;;;14.65;;
29688;SDS011;16600;47.444;8.334;2024-01-30T01:27:46;16.48;;;14.63;;
29688;SDS011;16600;47.444;8.334;2024-01-30T01:30:17;16.63;;;14.82;;
29688;SDS011;16600;47.444;8.334;2024-01-30T01:33:03;16.65;;;15.05;;
29688;SDS011;16600;47.444;8.334;2024-01-30T01:35:28;19.67;;;16.70;;
29688;SDS011;16600;47.444;8.334;2024-01-30T01:37:54;18.45;;;16.17;;
29688;SDS011;16600;47.444;8.334;2024-01-30T01:42:45;18.52;;;15.80;;
29688;SDS011;16600;47.444;8.334;2024-01-30T01:45:11;16.52;;;13.77;;
29688;SDS011;16600;47.444;8.334;2024-01-30T01:50:02;14.30;;;12.85;;
29688;SDS011;16600;47.444;8.334;2024-01-30T01:52:28;15.32;;;13.52;;
29688;SDS011;16600;47.444;8.334;2024-01-30T01:54:54;14.88;;;13.38;;
29688;SDS011;16600;47.444;8.334;2024-01-30T01:57:20;14.32;;;12.93;;
29688;SDS011;16600;47.444;8.334;2024-01-30T01:59:45;15.68;;;14.18;;
29688;SDS011;16600;47.444;8.334;2024-01-30T02:02:11;15.77;;;14.10;;
29688;SDS011;16600;47.444;8.334;2024-01-30T02:04:38;15.98;;;14.27;;
29688;SDS011;16600;47.444;8.334;2024-01-30T02:07:03;16.13;;;14.43;;
29688;SDS011;16600;47.444;8.334;2024-01-30T02:09:29;15.20;;;13.68;;
29688;SDS011;16600;47.444;8.334;2024-01-30T02:11:55;16.60;;;14.88;;
29688;SDS011;16600;47.444;8.334;2024-01-30T02:14:21;16.35;;;14.82;;
29688;SDS011;16600;47.444;8.334;2024-01-30T02:16:46;18.05;;;16.15;;
29688;SDS011;16600;47.444;8.334;2024-01-30T02:19:13;18.00;;;16.17;;
29688;SDS011;16600;47.444;8.334;2024-01-30T02:21:39;18.58;;;16.38;;
29688;SDS011;16600;47.444;8.334;2024-01-30T02:26:30;15.98;;;14.27;;
29688;SDS011;16600;47.444;8.334;2024-01-30T02:28:55;15.88;;;14.35;;
29688;SDS011;16600;47.444;8.334;2024-01-30T02:33:47;16.63;;;14.77;;
29688;SDS011;16600;47.444;8.334;2024-01-30T02:38:38;15.40;;;13.90;;
29688;SDS011;16600;47.444;8.334;2024-01-30T02:41:03;16.13;;;12.88;;
29688;SDS011;16600;47.444;8.334;2024-01-30T02:43:29;14.50;;;12.93;;
29688;SDS011;16600;47.444;8.334;2024-01-30T02:45:55;14.32;;;12.85;;
29688;SDS011;16600;47.444;8.334;2024-01-30T02:50:46;14.35;;;12.82;;
29688;SDS011;16600;47.444;8.334;2024-01-30T02:53:12;16.05;;;14.35;;
29688;SDS011;16600;47.444;8.334;2024-01-30T02:55:38;18.08;;;14.10;;
29688;SDS011;16600;47.444;8.334;2024-01-30T02:58:03;16.05;;;14.45;;
29688;SDS011;16600;47.444;8.334;2024-01-30T03:03:04;14.80;;;12.80;;
29688;SDS011;16600;47.444;8.334;2024-01-30T03:07:55;13.85;;;12.45;;
29688;SDS011;16600;47.444;8.334;2024-01-30T03:10:20;13.90;;;12.50;;
29688;SDS011;16600;47.444;8.334;2024-01-30T03:12:46;11.85;;;10.68;;
29688;SDS011;16600;47.444;8.334;2024-01-30T03:15:11;13.43;;;10.82;;
29688;SDS011;16600;47.444;8.334;2024-01-30T03:17:37;13.27;;;12.07;;
29688;SDS011;16600;47.444;8.334;2024-01-30T03:20:03;13.57;;;12.18;;
29688;SDS011;16600;47.444;8.334;2024-01-30T03:22:29;14.93;;;13.45;;
29688;SDS011;16600;47.444;8.334;2024-01-30T03:24:55;13.90;;;11.82;;
29688;SDS011;16600;47.444;8.334;2024-01-30T03:27:20;13.40;;;12.00;;
29688;SDS011;16600;47.444;8.334;2024-01-30T03:29:46;12.52;;;11.23;;
29688;SDS011;16600;47.444;8.334;2024-01-30T03:34:40;13.73;;;12.35;;
29688;SDS011;16600;47.444;8.334;2024-01-30T03:37:05;12.07;;;10.88;;
29688;SDS011;16600;47.444;8.334;2024-01-30T03:39:31;12.18;;;10.98;;
29688;SDS011;16600;47.444;8.334;2024-01-30T03:44:22;13.00;;;11.70;;
29688;SDS011;16600;47.444;8.334;2024-01-30T03:46:47;13.73;;;12.30;;
29688;SDS011;16600;47.444;8.334;2024-01-30T03:51:38;12.45;;;11.15;;
29688;SDS011;16600;47.444;8.334;2024-01-30T03:54:04;15.23;;;13.63;;
29688;SDS011;16600;47.444;8.334;2024-01-30T03:56:30;16.60;;;13.93;;
29688;SDS011;16600;47.444;8.334;2024-01-30T03:58:55;17.17;;;13.13;;
29688;SDS011;16600;47.444;8.334;2024-01-30T04:01:22;15.60;;;14.10;;
29688;SDS011;16600;47.444;8.334;2024-01-30T04:03:48;19.95;;;14.32;;
29688;SDS011;16600;47.444;8.334;2024-01-30T04:06:14;16.13;;;13.07;;
29688;SDS011;16600;47.444;8.334;2024-01-30T04:08:39;15.80;;;14.07;;
29688;SDS011;16600;47.444;8.334;2024-01-30T04:11:05;16.35;;;13.25;;
29688;SDS011;16600;47.444;8.334;2024-01-30T04:13:31;14.75;;;13.38;;
29688;SDS011;16600;47.444;8.334;2024-01-30T04:15:58;14.35;;;12.95;;
29688;SDS011;16600;47.444;8.334;2024-01-30T04:18:24;16.90;;;14.18;;
29688;SDS011;16600;47.444;8.334;2024-01-30T04:20:49;13.82;;;12.43;;
29688;SDS011;16600;47.444;8.334;2024-01-30T04:23:15;14.93;;;12.73;;
29688;SDS011;16600;47.444;8.334;2024-01-30T04:25:40;13.15;;;11.95;;
29688;SDS011;16600;47.444;8.334;2024-01-30T04:28:06;13.98;;;12.57;;
29688;SDS011;16600;47.444;8.334;2024-01-30T04:30:31;14.57;;;13.07;;
29688;SDS011;16600;47.444;8.334;2024-01-30T04:32:57;20.08;;;13.38;;
29688;SDS011;16600;47.444;8.334;2024-01-30T04:35:23;20.20;;;14.02;;
29688;SDS011;16600;47.444;8.334;2024-01-30T04:37:51;18.77;;;15.50;;
29688;SDS011;16600;47.444;8.334;2024-01-30T04:40:17;16.02;;;14.32;;
29688;SDS011;16600;47.444;8.334;2024-01-30T04:42:42;16.88;;;14.32;;
29688;SDS011;16600;47.444;8.334;2024-01-30T04:47:33;15.25;;;13.68;;
29688;SDS011;16600;47.444;8.334;2024-01-30T04:49:59;16.42;;;14.73;;
29688;SDS011;16600;47.444;8.334;2024-01-30T04:52:24;15.98;;;14.38;;
29688;SDS011;16600;47.444;8.334;2024-01-30T04:54:50;14.07;;;12.65;;
29688;SDS011;16600;47.444;8.334;2024-01-30T04:57:16;14.77;;;12.63;;
29688;SDS011;16600;47.444;8.334;2024-01-30T04:59:41;16.17;;;13.98;;
29688;SDS011;16600;47.444;8.334;2024-01-30T05:03:02;15.57;;;13.95;;
29688;SDS011;16600;47.444;8.334;2024-01-30T05:05:28;16.80;;;14.68;;
29688;SDS011;16600;47.444;8.334;2024-01-30T05:07:54;14.00;;;12.55;;
29688;SDS011;16600;47.444;8.334;2024-01-30T05:12:44;14.90;;;13.40;;
29688;SDS011;16600;47.444;8.334;2024-01-30T05:15:10;15.77;;;14.07;;
29688;SDS011;16600;47.444;8.334;2024-01-30T05:17:36;13.25;;;11.95;;
29688;SDS011;16600;47.444;8.334;2024-01-30T05:20:01;14.23;;;12.73;;
29688;SDS011;16600;47.444;8.334;2024-01-30T05:24:53;15.13;;;13.57;;
29688;SDS011;16600;47.444;8.334;2024-01-30T05:27:18;18.33;;;13.60;;
29688;SDS011;16600;47.444;8.334;2024-01-30T05:32:09;15.32;;;13.73;;
29688;SDS011;16600;47.444;8.334;2024-01-30T05:34:36;21.17;;;16.15;;
29688;SDS011;16600;47.444;8.334;2024-01-30T05:37:01;15.52;;;13.93;;
29688;SDS011;16600;47.444;8.334;2024-01-30T05:39:27;19.60;;;15.38;;
29688;SDS011;16600;47.444;8.334;2024-01-30T05:41:53;16.63;;;13.93;;
29688;SDS011;16600;47.444;8.334;2024-01-30T05:46:43;15.32;;;13.68;;
29688;SDS011;16600;47.444;8.334;2024-01-30T05:49:09;21.25;;;15.57;;
29688;SDS011;16600;47.444;8.334;2024-01-30T05:51:34;16.17;;;14.48;;
29688;SDS011;16600;47.444;8.334;2024-01-30T05:56:28;13.73;;;12.15;;
29688;SDS011;16600;47.444;8.334;2024-01-30T05:58:54;15.32;;;13.10;;
29688;SDS011;16600;47.444;8.334;2024-01-30T06:01:20;12.60;;;11.30;;
29688;SDS011;16600;47.444;8.334;2024-01-30T06:06:11;12.63;;;11.45;;
29688;SDS011;16600;47.444;8.334;2024-01-30T06:08:36;11.13;;;9.98;;
29688;SDS011;16600;47.444;8.334;2024-01-30T06:11:02;11.98;;;10.13;;
29688;SDS011;16600;47.444;8.334;2024-01-30T06:13:28;10.20;;;8.88;;
29688;SDS011;16600;47.444;8.334;2024-01-30T06:15:57;10.43;;;9.43;;
29688;SDS011;16600;47.444;8.334;2024-01-30T06:18:22;10.00;;;9.07;;
29688;SDS011;16600;47.444;8.334;2024-01-30T06:20:48;9.52;;;8.63;;
29688;SDS011;16600;47.444;8.334;2024-01-30T06:23:13;11.55;;;10.30;;
29688;SDS011;16600;47.444;8.334;2024-01-30T06:25:40;11.15;;;9.52;;
29688;SDS011;16600;47.444;8.334;2024-01-30T06:28:05;10.45;;;9.40;;
29688;SDS011;16600;47.444;8.334;2024-01-30T06:32:56;11.98;;;10.25;;
29688;SDS011;16600;47.444;8.334;2024-01-30T06:35:22;11.88;;;10.32;;
29688;SDS011;16600;47.444;8.334;2024-01-30T06:37:47;13.60;;;10.52;;
29688;SDS011;16600;47.444;8.334;2024-01-30T06:42:38;10.68;;;9.57;;
29688;SDS011;16600;47.444;8.334;2024-01-30T06:45:04;13.48;;;10.27;;
29688;SDS011;16600;47.444;8.334;2024-01-30T06:47:30;13.55;;;11.30;;
29688;SDS011;16600;47.444;8.334;2024-01-30T06:49:56;10.80;;;9.80;;
29688;SDS011;16600;47.444;8.334;2024-01-30T06:52:22;12.18;;;10.95;;
29688;SDS011;16600;47.444;8.334;2024-01-30T06:54:50;9.18;;;8.30;;
29688;SDS011;16600;47.444;8.334;2024-01-30T06:57:16;12.35;;;9.30;;
29688;SDS011;16600;47.444;8.334;2024-01-30T06:59:41;11.57;;;10.38;;
29688;SDS011;16600;47.444;8.334;2024-01-30T07:03:02;11.10;;;9.87;;
29688;SDS011;16600;47.444;8.334;2024-01-30T07:05:28;10.77;;;9.57;;
29688;SDS011;16600;47.444;8.334;2024-01-30T07:07:53;9.65;;;8.65;;
29688;SDS011;16600;47.444;8.334;2024-01-30T07:10:19;8.95;;;8.05;;
29688;SDS011;16600;47.444;8.334;2024-01-30T07:12:44;9.98;;;7.90;;
29688;SDS011;16600;47.444;8.334;2024-01-30T07:15:14;8.50;;;7.25;;
29688;SDS011;16600;47.444;8.334;2024-01-30T07:17:43;7.47;;;6.70;;
29688;SDS011;16600;47.444;8.334;2024-01-30T07:20:09;8.00;;;6.93;;
29688;SDS011;16600;47.444;8.334;2024-01-30T07:22:38;8.13;;;7.22;;
29688;SDS011;16600;47.444;8.334;2024-01-30T07:25:04;7.50;;;6.80;;
29688;SDS011;16600;47.444;8.334;2024-01-30T07:27:29;9.07;;;6.90;;
29688;SDS011;16600;47.444;8.334;2024-01-30T07:32:20;8.80;;;7.90;;
29688;SDS011;16600;47.444;8.334;2024-01-30T07:34:46;7.78;;;7.07;;
29688;SDS011;16600;47.444;8.334;2024-01-30T07:37:12;13.07;;;7.68;;
29688;SDS011;16600;47.444;8.334;2024-01-30T07:39:40;9.82;;;7.10;;
29688;SDS011;16600;47.444;8.334;2024-01-30T07:42:06;7.18;;;6.50;;
29688;SDS011;16600;47.444;8.334;2024-01-30T07:44:32;11.32;;;7.95;;
29688;SDS011;16600;47.444;8.334;2024-01-30T07:46:58;8.02;;;7.13;;
29688;SDS011;16600;47.444;8.334;2024-01-30T07:49:24;9.80;;;8.13;;
29688;SDS011;16600;47.444;8.334;2024-01-30T07:51:50;10.90;;;8.52;;
29688;SDS011;16600;47.444;8.334;2024-01-30T07:56:42;6.82;;;5.97;;
29688;SDS011;16600;47.444;8.334;2024-01-30T07:59:11;6.78;;;6.10;;
29688;SDS011;16600;47.444;8.334;2024-01-30T08:01:43;7.53;;;6.35;;
29688;SDS011;16600;47.444;8.334;2024-01-30T08:04:09;6.80;;;6.15;;
29688;SDS011;16600;47.444;8.334;2024-01-30T08:06:36;7.25;;;6.05;;
29688;SDS011;16600;47.444;8.334;2024-01-30T08:09:01;7.57;;;6.63;;
29688;SDS011;16600;47.444;8.334;2024-01-30T08:11:27;6.72;;;6.10;;
29688;SDS011;16600;47.444;8.334;2024-01-30T08:13:54;7.20;;;5.90;;
29688;SDS011;16600;47.444;8.334;2024-01-30T08:18:45;8.23;;;7.10;;
29688;SDS011;16600;47.444;8.334;2024-01-30T08:23:38;7.97;;;7.18;;
29688;SDS011;16600;47.444;8.334;2024-01-30T08:26:04;14.95;;;6.60;;
29688;SDS011;16600;47.444;8.334;2024-01-30T08:30:54;9.40;;;6.90;;
29688;SDS011;16600;47.444;8.334;2024-01-30T08:35:46;8.77;;;7.65;;
29688;SDS011;16600;47.444;8.334;2024-01-30T08:40:37;12.73;;;9.95;;
29688;SDS011;16600;47.444;8.334;2024-01-30T08:45:29;18.17;;;8.73;;
29688;SDS011;16600;47.444;8.334;2024-01-30T08:47:56;10.07;;;8.38;;
29688;SDS011;16600;47.444;8.334;2024-01-30T08:52:47;10.80;;;9.02;;
29688;SDS011;16600;47.444;8.334;2024-01-30T08:57:39;10.32;;;8.98;;
29688;SDS011;16600;47.444;8.334;2024-01-30T11:03:01;10.53;;;9.53;;
29688;SDS011;16600;47.444;8.334;2024-01-30T11:05:27;14.48;;;9.55;;
29688;SDS011;16600;47.444;8.334;2024-01-30T11:07:54;16.05;;;9.57;;
29688;SDS011;16600;47.444;8.334;2024-01-30T11:12:45;13.70;;;10.50;;
29688;SDS011;16600;47.444;8.334;2024-01-30T11:15:17;15.60;;;10.60;;
29688;SDS011;16600;47.444;8.334;2024-01-30T11:22:34;19.27;;;9.80;;
29688;SDS011;16600;47.444;8.334;2024-01-30T11:25:01;15.13;;;10.18;;
29688;SDS011;16600;47.444;8.334;2024-01-30T11:27:28;12.80;;;10.07;;
29688;SDS011;16600;47.444;8.334;2024-01-30T11:29:54;12.25;;;10.77;;
29688;SDS011;16600;47.444;8.334;2024-01-30T11:32:26;21.02;;;11.90;;
29688;SDS011;16600;47.444;8.334;2024-01-30T11:37:17;20.40;;;11.50;;
29688;SDS011;16600;47.444;8.334;2024-01-30T11:39:45;13.30;;;10.90;;
29688;SDS011;16600;47.444;8.334;2024-01-30T11:42:11;18.27;;;11.73;;
29688;SDS011;16600;47.444;8.334;2024-01-30T11:44:38;16.40;;;11.07;;
29688;SDS011;16600;47.444;8.334;2024-01-30T11:47:07;18.17;;;11.10;;
29688;SDS011;16600;47.444;8.334;2024-01-30T11:49:36;13.23;;;11.70;;
29688;SDS011;16600;47.444;8.334;2024-01-30T11:54:28;15.40;;;11.68;;
29688;SDS011;16600;47.444;8.334;2024-01-30T11:56:54;19.00;;;11.10;;
29688;SDS011;16600;47.444;8.334;2024-01-30T12:01:45;20.52;;;11.52;;
29688;SDS011;16600;47.444;8.334;2024-01-30T12:06:36;12.15;;;10.57;;
29688;SDS011;16600;47.444;8.334;2024-01-30T12:09:02;16.85;;;11.85;;
29688;SDS011;16600;47.444;8.334;2024-01-30T12:11:43;22.38;;;13.18;;
29688;SDS011;16600;47.444;8.334;2024-01-30T12:14:09;13.80;;;10.88;;
29688;SDS011;16600;47.444;8.334;2024-01-30T12:19:01;15.35;;;11.38;;
29688;SDS011;16600;47.444;8.334;2024-01-30T12:21:28;16.92;;;11.82;;
29688;SDS011;16600;47.444;8.334;2024-01-30T12:23:53;16.10;;;12.30;;
29688;SDS011;16600;47.444;8.334;2024-01-30T12:28:48;16.52;;;9.63;;
29688;SDS011;16600;47.444;8.334;2024-01-30T12:31:14;15.55;;;9.30;;
29688;SDS011;16600;47.444;8.334;2024-01-30T12:33:40;15.05;;;10.18;;
29688;SDS011;16600;47.444;8.334;2024-01-30T12:36:05;16.63;;;10.32;;
29688;SDS011;16600;47.444;8.334;2024-01-30T12:40:56;15.25;;;9.85;;
29688;SDS011;16600;47.444;8.334;2024-01-30T12:43:26;14.23;;;10.63;;
29688;SDS011;16600;47.444;8.334;2024-01-30T12:45:55;13.05;;;9.65;;
29688;SDS011;16600;47.444;8.334;2024-01-30T12:48:20;13.68;;;9.30;;
29688;SDS011;16600;47.444;8.334;2024-01-30T12:50:46;10.95;;;8.95;;
29688;SDS011;16600;47.444;8.334;2024-01-30T12:53:11;10.15;;;9.13;;
29688;SDS011;16600;47.444;8.334;2024-01-30T12:55:38;14.48;;;9.13;;
29688;SDS011;16600;47.444;8.334;2024-01-30T12:58:03;10.30;;;8.13;;
29688;SDS011;16600;47.444;8.334;2024-01-30T13:03:01;15.40;;;10.43;;
29688;SDS011;16600;47.444;8.334;2024-01-30T13:05:27;14.13;;;9.50;;
29688;SDS011;16600;47.444;8.334;2024-01-30T13:07:53;17.80;;;9.95;;
29688;SDS011;16600;47.444;8.334;2024-01-30T13:10:19;14.90;;;9.35;;
29688;SDS011;16600;47.444;8.334;2024-01-30T13:15:10;14.07;;;10.18;;
29688;SDS011;16600;47.444;8.334;2024-01-30T13:17:36;11.45;;;9.93;;
29688;SDS011;16600;47.444;8.334;2024-01-30T13:20:02;12.23;;;9.55;;
29688;SDS011;16600;47.444;8.334;2024-01-30T13:22:29;18.60;;;10.30;;
29688;SDS011;16600;47.444;8.334;2024-01-30T13:24:55;15.30;;;9.95;;
29688;SDS011;16600;47.444;8.334;2024-01-30T13:29:46;12.02;;;9.38;;
29688;SDS011;16600;47.444;8.334;2024-01-30T13:32:12;12.90;;;9.73;;
29688;SDS011;16600;47.444;8.334;2024-01-30T13:34:37;10.93;;;8.90;;
29688;SDS011;16600;47.444;8.334;2024-01-30T13:39:28;10.63;;;8.70;;
29688;SDS011;16600;47.444;8.334;2024-01-30T13:41:54;11.10;;;9.10;;
29688;SDS011;16600;47.444;8.334;2024-01-30T13:46:46;11.40;;;8.90;;
29688;SDS011;16600;47.444;8.334;2024-01-30T13:51:37;14.85;;;10.02;;
29688;SDS011;16600;47.444;8.334;2024-01-30T13:56:28;14.05;;;10.10;;
29688;SDS011;16600;47.444;8.334;2024-01-30T13:58:54;13.93;;;9.77;;
29688;SDS011;16600;47.444;8.334;2024-01-30T14:01:22;12.70;;;10.23;;
29688;SDS011;16600;47.444;8.334;2024-01-30T14:06:13;16.45;;;11.45;;
29688;SDS011;16600;47.444;8.334;2024-01-30T14:11:04;18.45;;;10.20;;
29688;SDS011;16600;47.444;8.334;2024-01-30T14:15:56;17.73;;;11.63;;
29688;SDS011;16600;47.444;8.334;2024-01-30T14:18:22;23.23;;;11.80;;
29688;SDS011;16600;47.444;8.334;2024-01-30T14:20:48;16.02;;;11.93;;
29688;SDS011;16600;47.444;8.334;2024-01-30T14:23:14;16.63;;;12.45;;
29688;SDS011;16600;47.444;8.334;2024-01-30T14:28:05;24.27;;;14.40;;
29688;SDS011;16600;47.444;8.334;2024-01-30T14:32:56;20.45;;;13.13;;
29688;SDS011;16600;47.444;8.334;2024-01-30T14:35:22;18.80;;;14.40;;
29688;SDS011;16600;47.444;8.334;2024-01-30T14:40:13;20.98;;;13.02;;
29688;SDS011;16600;47.444;8.334;2024-01-30T14:45:06;18.02;;;13.00;;
29688;SDS011;16600;47.444;8.334;2024-01-30T14:47:33;16.13;;;13.32;;
29688;SDS011;16600;47.444;8.334;2024-01-30T14:52:23;22.13;;;14.38;;
29688;SDS011;16600;47.444;8.334;2024-01-30T14:57:14;22.92;;;14.90;;
29688;SDS011;16600;47.444;8.334;2024-01-30T15:03:02;16.00;;;12.17;;
29688;SDS011;16600;47.444;8.334;2024-01-30T15:07:53;17.48;;;12.50;;
29688;SDS011;16600;47.444;8.334;2024-01-30T15:12:44;19.95;;;13.55;;
29688;SDS011;16600;47.444;8.334;2024-01-30T15:17:35;15.30;;;12.15;;
29688;SDS011;16600;47.444;8.334;2024-01-30T15:22:26;18.55;;;12.93;;
29688;SDS011;16600;47.444;8.334;2024-01-30T15:27:17;19.20;;;13.05;;
29688;SDS011;16600;47.444;8.334;2024-01-30T15:29:45;18.30;;;12.70;;
29688;SDS011;16600;47.444;8.334;2024-01-30T15:34:36;17.88;;;12.25;;
29688;SDS011;16600;47.444;8.334;2024-01-30T15:39:28;12.83;;;10.37;;
29688;SDS011;16600;47.444;8.334;2024-01-30T15:41:53;19.25;;;11.27;;
29688;SDS011;16600;47.444;8.334;2024-01-30T15:44:19;15.70;;;11.95;;
29688;SDS011;16600;47.444;8.334;2024-01-30T15:49:10;15.80;;;11.85;;
29688;SDS011;16600;47.444;8.334;2024-01-30T15:54:01;18.38;;;14.98;;
29688;SDS011;16600;47.444;8.334;2024-01-30T15:56:27;26.42;;;15.85;;
29688;SDS011;16600;47.444;8.334;2024-01-30T16:01:18;23.50;;;16.02;;
29688;SDS011;16600;47.444;8.334;2024-01-30T16:06:12;28.38;;;17.05;;
29688;SDS011;16600;47.444;8.334;2024-01-30T16:08:38;22.92;;;15.32;;
29688;SDS011;16600;47.444;8.334;2024-01-30T16:13:29;15.73;;;12.80;;
29688;SDS011;16600;47.444;8.334;2024-01-30T16:18:21;15.63;;;13.10;;
29688;SDS011;16600;47.444;8.334;2024-01-30T16:23:12;21.83;;;13.70;;
29688;SDS011;16600;47.444;8.334;2024-01-30T16:28:03;18.20;;;12.63;;
29688;SDS011;16600;47.444;8.334;2024-01-30T16:32:54;16.20;;;11.57;;
29688;SDS011;16600;47.444;8.334;2024-01-30T16:37:45;18.75;;;14.15;;
29688;SDS011;16600;47.444;8.334;2024-01-30T16:42:36;29.67;;;18.17;;
29688;SDS011;16600;47.444;8.334;2024-01-30T16:47:26;28.40;;;18.20;;
29688;SDS011;16600;47.444;8.334;2024-01-30T16:49:52;22.38;;;16.50;;
29688;SDS011;16600;47.444;8.334;2024-01-30T16:54:45;29.20;;;15.13;;
29688;SDS011;16600;47.444;8.334;2024-01-30T16:59:36;19.58;;;13.68;;
29688;SDS011;16600;47.444;8.334;2024-01-30T17:03:16;26.07;;;15.57;;
29688;SDS011;16600;47.444;8.334;2024-01-30T17:05:45;27.95;;;18.40;;
29688;SDS011;16600;47.444;8.334;2024-01-30T19:03:04;23.07;;;14.63;;
29688;SDS011;16600;47.444;8.334;2024-01-30T19:05:33;21.13;;;15.07;;
29688;SDS011;16600;47.444;8.334;2024-01-30T19:08:02;16.95;;;14.20;;
29688;SDS011;16600;47.444;8.334;2024-01-30T19:10:31;23.55;;;15.68;;
29688;SDS011;16600;47.444;8.334;2024-01-30T19:13:01;21.40;;;14.70;;
29688;SDS011;16600;47.444;8.334;2024-01-30T19:15:28;20.65;;;15.55;;
29688;SDS011;16600;47.444;8.334;2024-01-30T19:17:54;19.50;;;15.38;;
29688;SDS011;16600;47.444;8.334;2024-01-30T19:22:48;17.33;;;14.38;;
29688;SDS011;16600;47.444;8.334;2024-01-30T19:25:25;19.95;;;14.05;;
29688;SDS011;16600;47.444;8.334;2024-01-30T19:27:53;17.67;;;14.65;;
29688;SDS011;16600;47.444;8.334;2024-01-30T19:30:23;22.27;;;14.27;;
29688;SDS011;16600;47.444;8.334;2024-01-30T19:35:23;21.60;;;16.55;;
29688;SDS011;16600;47.444;8.334;2024-01-30T19:37:56;24.08;;;16.98;;
29688;SDS011;16600;47.444;8.334;2024-01-30T19:42:47;17.27;;;13.88;;
29688;SDS011;16600;47.444;8.334;2024-01-30T19:45:20;27.15;;;16.05;;
29688;SDS011;16600;47.444;8.334;2024-01-30T19:47:45;22.15;;;15.00;;
29688;SDS011;16600;47.444;8.334;2024-01-30T19:50:14;20.10;;;15.75;;
29688;SDS011;16600;47.444;8.334;2024-01-30T19:55:08;27.30;;;17.77;;
29688;SDS011;16600;47.444;8.334;2024-01-30T19:59:59;29.77;;;19.60;;
29688;SDS011;16600;47.444;8.334;2024-01-30T20:02:29;33.70;;;21.45;;
29688;SDS011;16600;47.444;8.334;2024-01-30T20:04:55;26.80;;;17.75;;
29688;SDS011;16600;47.444;8.334;2024-01-30T20:09:46;17.08;;;15.27;;
29688;SDS011;16600;47.444;8.334;2024-01-30T20:12:13;33.22;;;18.85;;
29688;SDS011;16600;47.444;8.334;2024-01-30T20:17:04;23.63;;;17.45;;
29688;SDS011;16600;47.444;8.334;2024-01-30T20:21:55;23.50;;;16.38;;
29688;SDS011;16600;47.444;8.334;2024-01-30T20:24:26;24.13;;;19.65;;
29688;SDS011;16600;47.444;8.334;2024-01-30T20:26:53;29.42;;;20.27;;
29688;SDS011;16600;47.444;8.334;2024-01-30T20:29:19;21.10;;;16.35;;
29688;SDS011;16600;47.444;8.334;2024-01-30T20:31:45;23.98;;;18.08;;
29688;SDS011;16600;47.444;8.334;2024-01-30T20:34:11;28.38;;;16.48;;
29688;SDS011;16600;47.444;8.334;2024-01-30T20:39:02;26.90;;;16.33;;
29688;SDS011;16600;47.444;8.334;2024-01-30T20:41:34;18.35;;;16.20;;
29688;SDS011;16600;47.444;8.334;2024-01-30T20:44:04;31.05;;;22.05;;
29688;SDS011;16600;47.444;8.334;2024-01-30T20:46:30;25.73;;;18.92;;
29688;SDS011;16600;47.444;8.334;2024-01-30T20:48:56;66.80;;;34.17;;
29688;SDS011;16600;47.444;8.334;2024-01-30T20:51:25;105.38;;;36.70;;
29688;SDS011;16600;47.444;8.334;2024-01-30T20:53:55;47.38;;;24.85;;
29688;SDS011;16600;47.444;8.334;2024-01-30T20:56:21;38.20;;;22.90;;
29688;SDS011;16600;47.444;8.334;2024-01-30T20:58:48;34.78;;;21.98;;
29688;SDS011;16600;47.444;8.334;2024-01-30T21:03:02;32.90;;;19.03;;
29688;SDS011;16600;47.444;8.334;2024-01-30T21:05:31;44.40;;;22.90;;
29688;SDS011;16600;47.444;8.334;2024-01-30T21:08:00;48.67;;;28.33;;
29688;SDS011;16600;47.444;8.334;2024-01-30T21:10:30;31.08;;;18.15;;
29688;SDS011;16600;47.444;8.334;2024-01-30T21:12:56;29.23;;;18.42;;
29688;SDS011;16600;47.444;8.334;2024-01-30T21:15:24;29.17;;;18.60;;
29688;SDS011;16600;47.444;8.334;2024-01-30T21:20:17;28.63;;;19.70;;
29688;SDS011;16600;47.444;8.334;2024-01-30T21:25:08;27.73;;;18.58;;
29688;SDS011;16600;47.444;8.334;2024-01-30T21:29:59;28.20;;;18.15;;
29688;SDS011;16600;47.444;8.334;2024-01-30T21:34:51;55.75;;;29.85;;
29688;SDS011;16600;47.444;8.334;2024-01-30T21:37:17;33.10;;;23.10;;
29688;SDS011;16600;47.444;8.334;2024-01-30T21:39:42;55.30;;;30.98;;
29688;SDS011;16600;47.444;8.334;2024-01-30T21:44:33;28.15;;;20.10;;
29688;SDS011;16600;47.444;8.334;2024-01-30T21:46:59;32.65;;;21.20;;
29688;SDS011;16600;47.444;8.334;2024-01-30T21:51:51;34.38;;;19.65;;
29688;SDS011;16600;47.444;8.334;2024-01-30T21:56:42;46.75;;;27.10;;
29688;SDS011;16600;47.444;8.334;2024-01-30T21:59:08;33.83;;;23.35;;
29688;SDS011;16600;47.444;8.334;2024-01-30T22:03:59;32.55;;;21.30;;
29688;SDS011;16600;47.444;8.334;2024-01-30T22:08:50;27.00;;;20.75;;
29688;SDS011;16600;47.444;8.334;2024-01-30T22:13:41;26.38;;;18.13;;
29688;SDS011;16600;47.444;8.334;2024-01-30T22:18:32;23.30;;;19.35;;
29688;SDS011;16600;47.444;8.334;2024-01-30T22:23:23;26.88;;;18.60;;
29688;SDS011;16600;47.444;8.334;2024-01-30T22:25:48;32.65;;;18.33;;
29688;SDS011;16600;47.444;8.334;2024-01-30T22:28:15;29.00;;;19.17;;